sensor_id;sensor_type;location;lat;lon;timestamp;P1;durP1;ratioP1;P2;durP2;ratioP2
29730;SDS011;16639;51.488;0.152;2022-11-09T00:00:42;20.95;;;4.72;;
29730;SDS011;16639;51.488;0.152;2022-11-09T00:03:09;26.95;;;5.47;;
29730;SDS011;16639;51.488;0.152;2022-11-09T00:05:37;22.13;;;5.20;;
29730;SDS011;16639;51.488;0.152;2022-11-09T00:08:06;29.80;;;5.28;;
29730;SDS011;16639;51.488;0.152;2022-11-09T00:10:35;23.42;;;4.45;;
29730;SDS011;16639;51.488;0.152;2022-11-09T00:13:03;23.77;;;4.65;;
29730;SDS011;16639;51.488;0.152;2022-11-09T00:15:31;21.52;;;5.43;;
29730;SDS011;16639;51.488;0.152;2022-11-09T00:17:59;17.48;;;4.82;;
29730;SDS011;16639;51.488;0.152;2022-11-09T00:20:28;29.48;;;6.20;;
29730;SDS011;16639;51.488;0.152;2022-11-09T00:22:55;24.33;;;5.40;;
29730;SDS011;16639;51.488;0.152;2022-11-09T00:25:23;25.77;;;4.70;;
29730;SDS011;16639;51.488;0.152;2022-11-09T00:27:51;32.63;;;4.30;;
29730;SDS011;16639;51.488;0.152;2022-11-09T00:30:19;28.25;;;6.32;;
29730;SDS011;16639;51.488;0.152;2022-11-09T00:32:46;34.35;;;5.90;;
29730;SDS011;16639;51.488;0.152;2022-11-09T00:35:14;32.72;;;5.68;;
29730;SDS011;16639;51.488;0.152;2022-11-09T00:37:41;21.75;;;4.63;;
29730;SDS011;16639;51.488;0.152;2022-11-09T00:40:09;36.15;;;4.85;;
29730;SDS011;16639;51.488;0.152;2022-11-09T00:42:37;36.15;;;5.60;;
29730;SDS011;16639;51.488;0.152;2022-11-09T00:45:04;26.80;;;5.15;;
29730;SDS011;16639;51.488;0.152;2022-11-09T00:47:32;18.27;;;5.10;;
29730;SDS011;16639;51.488;0.152;2022-11-09T00:49:59;18.90;;;4.63;;
29730;SDS011;16639;51.488;0.152;2022-11-09T00:52:26;21.88;;;4.68;;
29730;SDS011;16639;51.488;0.152;2022-11-09T00:54:54;13.02;;;4.78;;
29730;SDS011;16639;51.488;0.152;2022-11-09T00:57:22;23.20;;;6.63;;
29730;SDS011;16639;51.488;0.152;2022-11-09T00:59:49;24.75;;;5.47;;
29730;SDS011;16639;51.488;0.152;2022-11-09T01:02:17;27.80;;;5.55;;
29730;SDS011;16639;51.488;0.152;2022-11-09T01:04:45;26.85;;;5.60;;
29730;SDS011;16639;51.488;0.152;2022-11-09T01:07:12;19.33;;;5.20;;
29730;SDS011;16639;51.488;0.152;2022-11-09T01:09:40;29.17;;;5.05;;
29730;SDS011;16639;51.488;0.152;2022-11-09T01:12:07;20.10;;;5.18;;
29730;SDS011;16639;51.488;0.152;2022-11-09T01:14:35;19.92;;;4.43;;
29730;SDS011;16639;51.488;0.152;2022-11-09T01:17:02;23.30;;;4.60;;
29730;SDS011;16639;51.488;0.152;2022-11-09T01:19:30;24.17;;;4.55;;
29730;SDS011;16639;51.488;0.152;2022-11-09T01:21:57;23.02;;;5.60;;
29730;SDS011;16639;51.488;0.152;2022-11-09T01:24:24;32.53;;;5.32;;
29730;SDS011;16639;51.488;0.152;2022-11-09T01:26:52;21.73;;;4.53;;
29730;SDS011;16639;51.488;0.152;2022-11-09T01:29:19;17.48;;;4.78;;
29730;SDS011;16639;51.488;0.152;2022-11-09T01:31:47;29.05;;;5.50;;
29730;SDS011;16639;51.488;0.152;2022-11-09T01:34:14;21.95;;;4.32;;
29730;SDS011;16639;51.488;0.152;2022-11-09T01:36:43;19.88;;;4.68;;
29730;SDS011;16639;51.488;0.152;2022-11-09T01:39:10;27.08;;;5.72;;
29730;SDS011;16639;51.488;0.152;2022-11-09T01:41:37;26.77;;;5.38;;
29730;SDS011;16639;51.488;0.152;2022-11-09T01:52:21;34.30;;;4.55;;
29730;SDS011;16639;51.488;0.152;2022-11-09T01:55:06;19.30;;;3.78;;
29730;SDS011;16639;51.488;0.152;2022-11-09T01:57:44;23.73;;;3.90;;
29730;SDS011;16639;51.488;0.152;2022-11-09T02:00:16;16.63;;;3.90;;
29730;SDS011;16639;51.488;0.152;2022-11-09T02:02:57;27.60;;;5.38;;
29730;SDS011;16639;51.488;0.152;2022-11-09T02:05:31;20.70;;;4.57;;
29730;SDS011;16639;51.488;0.152;2022-11-09T02:08:00;19.60;;;4.35;;
29730;SDS011;16639;51.488;0.152;2022-11-09T02:10:32;16.98;;;4.63;;
29730;SDS011;16639;51.488;0.152;2022-11-09T02:13:23;19.33;;;4.38;;
29730;SDS011;16639;51.488;0.152;2022-11-09T02:15:52;26.52;;;4.30;;
29730;SDS011;16639;51.488;0.152;2022-11-09T02:18:20;23.00;;;4.25;;
29730;SDS011;16639;51.488;0.152;2022-11-09T02:20:49;23.38;;;4.40;;
29730;SDS011;16639;51.488;0.152;2022-11-09T02:23:18;20.45;;;3.78;;
29730;SDS011;16639;51.488;0.152;2022-11-09T02:25:48;25.13;;;5.18;;
29730;SDS011;16639;51.488;0.152;2022-11-09T02:28:19;26.95;;;4.72;;
29730;SDS011;16639;51.488;0.152;2022-11-09T02:30:48;24.58;;;5.15;;
29730;SDS011;16639;51.488;0.152;2022-11-09T02:33:19;21.13;;;4.13;;
29730;SDS011;16639;51.488;0.152;2022-11-09T02:35:47;29.00;;;5.10;;
29730;SDS011;16639;51.488;0.152;2022-11-09T02:38:15;19.30;;;4.50;;
29730;SDS011;16639;51.488;0.152;2022-11-09T02:40:44;29.25;;;5.25;;
29730;SDS011;16639;51.488;0.152;2022-11-09T02:43:15;21.40;;;4.43;;
29730;SDS011;16639;51.488;0.152;2022-11-09T02:45:45;29.42;;;4.35;;
29730;SDS011;16639;51.488;0.152;2022-11-09T02:48:12;19.13;;;3.78;;
29730;SDS011;16639;51.488;0.152;2022-11-09T02:50:40;24.20;;;3.88;;
29730;SDS011;16639;51.488;0.152;2022-11-09T02:53:07;12.95;;;3.42;;
29730;SDS011;16639;51.488;0.152;2022-11-09T02:55:34;17.88;;;4.68;;
29730;SDS011;16639;51.488;0.152;2022-11-09T02:58:02;18.38;;;3.90;;
29730;SDS011;16639;51.488;0.152;2022-11-09T03:00:29;18.50;;;3.97;;
29730;SDS011;16639;51.488;0.152;2022-11-09T03:02:56;18.42;;;3.83;;
29730;SDS011;16639;51.488;0.152;2022-11-09T03:05:24;30.27;;;4.53;;
29730;SDS011;16639;51.488;0.152;2022-11-09T03:07:52;25.63;;;3.83;;
29730;SDS011;16639;51.488;0.152;2022-11-09T03:10:19;20.10;;;4.03;;
29730;SDS011;16639;51.488;0.152;2022-11-09T03:12:46;22.77;;;4.45;;
29730;SDS011;16639;51.488;0.152;2022-11-09T03:15:13;20.83;;;4.15;;
29730;SDS011;16639;51.488;0.152;2022-11-09T03:17:41;20.48;;;4.07;;
29730;SDS011;16639;51.488;0.152;2022-11-09T03:20:08;20.65;;;4.28;;
29730;SDS011;16639;51.488;0.152;2022-11-09T03:22:36;20.05;;;4.15;;
29730;SDS011;16639;51.488;0.152;2022-11-09T03:25:04;19.35;;;3.67;;
29730;SDS011;16639;51.488;0.152;2022-11-09T03:27:32;16.73;;;3.58;;
29730;SDS011;16639;51.488;0.152;2022-11-09T03:29:59;19.25;;;3.55;;
29730;SDS011;16639;51.488;0.152;2022-11-09T03:32:27;11.43;;;3.65;;
29730;SDS011;16639;51.488;0.152;2022-11-09T03:34:54;16.55;;;3.72;;
29730;SDS011;16639;51.488;0.152;2022-11-09T03:37:22;15.85;;;3.10;;
29730;SDS011;16639;51.488;0.152;2022-11-09T03:39:49;15.35;;;3.67;;
29730;SDS011;16639;51.488;0.152;2022-11-09T03:42:17;22.10;;;4.10;;
29730;SDS011;16639;51.488;0.152;2022-11-09T03:44:44;11.50;;;2.72;;
29730;SDS011;16639;51.488;0.152;2022-11-09T03:47:12;15.85;;;3.08;;
29730;SDS011;16639;51.488;0.152;2022-11-09T03:49:39;22.63;;;3.92;;
29730;SDS011;16639;51.488;0.152;2022-11-09T03:52:06;18.02;;;3.53;;
29730;SDS011;16639;51.488;0.152;2022-11-09T03:54:34;22.25;;;5.43;;
29730;SDS011;16639;51.488;0.152;2022-11-09T03:57:01;15.90;;;3.28;;
29730;SDS011;16639;51.488;0.152;2022-11-09T03:59:28;15.23;;;3.05;;
29730;SDS011;16639;51.488;0.152;2022-11-09T04:01:57;14.07;;;2.65;;
29730;SDS011;16639;51.488;0.152;2022-11-09T04:04:24;14.77;;;2.58;;
29730;SDS011;16639;51.488;0.152;2022-11-09T04:06:52;13.20;;;2.90;;
29730;SDS011;16639;51.488;0.152;2022-11-09T04:09:19;11.45;;;3.35;;
29730;SDS011;16639;51.488;0.152;2022-11-09T04:11:47;11.75;;;2.67;;
29730;SDS011;16639;51.488;0.152;2022-11-09T04:14:14;11.20;;;2.40;;
29730;SDS011;16639;51.488;0.152;2022-11-09T04:16:41;12.95;;;2.70;;
29730;SDS011;16639;51.488;0.152;2022-11-09T04:19:08;11.57;;;2.72;;
29730;SDS011;16639;51.488;0.152;2022-11-09T04:21:36;14.90;;;2.40;;
29730;SDS011;16639;51.488;0.152;2022-11-09T04:24:03;18.85;;;3.58;;
29730;SDS011;16639;51.488;0.152;2022-11-09T04:26:30;18.70;;;2.90;;
29730;SDS011;16639;51.488;0.152;2022-11-09T04:28:58;17.40;;;2.78;;
29730;SDS011;16639;51.488;0.152;2022-11-09T04:31:26;12.57;;;2.20;;
29730;SDS011;16639;51.488;0.152;2022-11-09T04:33:54;9.43;;;2.85;;
29730;SDS011;16639;51.488;0.152;2022-11-09T04:36:21;12.27;;;2.90;;
29730;SDS011;16639;51.488;0.152;2022-11-09T04:38:49;9.23;;;2.20;;
29730;SDS011;16639;51.488;0.152;2022-11-09T04:41:16;16.35;;;3.55;;
29730;SDS011;16639;51.488;0.152;2022-11-09T04:43:43;14.15;;;2.38;;
29730;SDS011;16639;51.488;0.152;2022-11-09T04:46:11;12.52;;;2.42;;
29730;SDS011;16639;51.488;0.152;2022-11-09T04:48:38;10.45;;;3.17;;
29730;SDS011;16639;51.488;0.152;2022-11-09T04:51:06;10.60;;;2.17;;
29730;SDS011;16639;51.488;0.152;2022-11-09T04:53:38;7.45;;;2.90;;
29730;SDS011;16639;51.488;0.152;2022-11-09T04:56:06;12.70;;;2.55;;
29730;SDS011;16639;51.488;0.152;2022-11-09T04:58:34;9.02;;;2.42;;
29730;SDS011;16639;51.488;0.152;2022-11-09T05:01:05;5.78;;;1.88;;
29730;SDS011;16639;51.488;0.152;2022-11-09T05:03:35;13.32;;;3.78;;
29730;SDS011;16639;51.488;0.152;2022-11-09T05:06:03;14.80;;;3.17;;
29730;SDS011;16639;51.488;0.152;2022-11-09T05:08:52;10.13;;;3.00;;
29730;SDS011;16639;51.488;0.152;2022-11-09T05:11:20;9.40;;;2.42;;
29730;SDS011;16639;51.488;0.152;2022-11-09T05:13:48;16.55;;;2.42;;
29730;SDS011;16639;51.488;0.152;2022-11-09T05:16:17;6.00;;;2.03;;
29730;SDS011;16639;51.488;0.152;2022-11-09T05:18:45;6.63;;;2.05;;
29730;SDS011;16639;51.488;0.152;2022-11-09T05:21:13;14.63;;;3.47;;
29730;SDS011;16639;51.488;0.152;2022-11-09T05:23:40;12.57;;;3.15;;
29730;SDS011;16639;51.488;0.152;2022-11-09T05:26:36;15.83;;;3.23;;
29730;SDS011;16639;51.488;0.152;2022-11-09T05:29:06;17.13;;;3.55;;
29730;SDS011;16639;51.488;0.152;2022-11-09T05:31:35;9.40;;;2.38;;
29730;SDS011;16639;51.488;0.152;2022-11-09T05:34:04;17.77;;;3.45;;
29730;SDS011;16639;51.488;0.152;2022-11-09T05:36:32;16.73;;;3.78;;
29730;SDS011;16639;51.488;0.152;2022-11-09T05:39:00;9.05;;;3.15;;
29730;SDS011;16639;51.488;0.152;2022-11-09T05:41:27;6.70;;;1.85;;
29730;SDS011;16639;51.488;0.152;2022-11-09T05:43:54;11.32;;;2.83;;
29730;SDS011;16639;51.488;0.152;2022-11-09T05:46:22;16.00;;;3.13;;
29730;SDS011;16639;51.488;0.152;2022-11-09T05:48:50;10.38;;;2.03;;
29730;SDS011;16639;51.488;0.152;2022-11-09T05:51:18;7.53;;;1.63;;
29730;SDS011;16639;51.488;0.152;2022-11-09T05:53:45;7.20;;;1.92;;
29730;SDS011;16639;51.488;0.152;2022-11-09T05:56:13;10.00;;;2.17;;
29730;SDS011;16639;51.488;0.152;2022-11-09T05:58:40;8.35;;;1.67;;
29730;SDS011;16639;51.488;0.152;2022-11-09T06:01:09;10.82;;;2.17;;
29730;SDS011;16639;51.488;0.152;2022-11-09T06:03:38;13.98;;;2.38;;
29730;SDS011;16639;51.488;0.152;2022-11-09T06:06:07;10.77;;;2.47;;
29730;SDS011;16639;51.488;0.152;2022-11-09T06:08:36;10.93;;;2.20;;
29730;SDS011;16639;51.488;0.152;2022-11-09T06:11:04;12.35;;;2.38;;
29730;SDS011;16639;51.488;0.152;2022-11-09T06:13:34;12.30;;;2.97;;
29730;SDS011;16639;51.488;0.152;2022-11-09T06:16:02;7.43;;;2.10;;
29730;SDS011;16639;51.488;0.152;2022-11-09T06:18:31;10.07;;;2.10;;
29730;SDS011;16639;51.488;0.152;2022-11-09T06:21:00;10.05;;;1.98;;
29730;SDS011;16639;51.488;0.152;2022-11-09T06:23:29;5.82;;;1.98;;
29730;SDS011;16639;51.488;0.152;2022-11-09T06:25:57;11.32;;;1.90;;
29730;SDS011;16639;51.488;0.152;2022-11-09T06:28:26;7.35;;;1.80;;
29730;SDS011;16639;51.488;0.152;2022-11-09T06:30:57;8.00;;;1.80;;
29730;SDS011;16639;51.488;0.152;2022-11-09T06:33:26;9.70;;;1.80;;
29730;SDS011;16639;51.488;0.152;2022-11-09T06:35:56;4.65;;;1.98;;
29730;SDS011;16639;51.488;0.152;2022-11-09T06:38:24;9.63;;;1.65;;
29730;SDS011;16639;51.488;0.152;2022-11-09T06:40:52;7.65;;;1.38;;
29730;SDS011;16639;51.488;0.152;2022-11-09T06:43:21;9.35;;;2.35;;
29730;SDS011;16639;51.488;0.152;2022-11-09T06:45:49;3.92;;;1.73;;
29730;SDS011;16639;51.488;0.152;2022-11-09T06:48:16;4.45;;;1.65;;
29730;SDS011;16639;51.488;0.152;2022-11-09T06:50:44;5.20;;;2.05;;
29730;SDS011;16639;51.488;0.152;2022-11-09T06:53:13;5.47;;;1.52;;
29730;SDS011;16639;51.488;0.152;2022-11-09T06:55:41;13.70;;;3.30;;
29730;SDS011;16639;51.488;0.152;2022-11-09T06:58:15;7.40;;;1.65;;
29730;SDS011;16639;51.488;0.152;2022-11-09T07:00:43;6.00;;;1.40;;
29730;SDS011;16639;51.488;0.152;2022-11-09T07:03:14;9.60;;;1.55;;
29730;SDS011;16639;51.488;0.152;2022-11-09T07:05:43;7.45;;;1.58;;
29730;SDS011;16639;51.488;0.152;2022-11-09T07:08:11;9.65;;;1.77;;
29730;SDS011;16639;51.488;0.152;2022-11-09T07:10:39;6.50;;;1.40;;
29730;SDS011;16639;51.488;0.152;2022-11-09T07:13:07;6.85;;;1.40;;
29730;SDS011;16639;51.488;0.152;2022-11-09T07:15:35;5.80;;;1.58;;
29730;SDS011;16639;51.488;0.152;2022-11-09T07:18:04;9.13;;;1.33;;
29730;SDS011;16639;51.488;0.152;2022-11-09T07:20:34;5.43;;;1.90;;
29730;SDS011;16639;51.488;0.152;2022-11-09T07:23:01;7.13;;;1.45;;
29730;SDS011;16639;51.488;0.152;2022-11-09T07:25:28;9.65;;;2.80;;
29730;SDS011;16639;51.488;0.152;2022-11-09T07:28:00;14.13;;;1.95;;
29730;SDS011;16639;51.488;0.152;2022-11-09T07:30:31;5.97;;;1.60;;
29730;SDS011;16639;51.488;0.152;2022-11-09T07:32:59;12.52;;;1.80;;
29730;SDS011;16639;51.488;0.152;2022-11-09T07:35:36;10.57;;;2.30;;
29730;SDS011;16639;51.488;0.152;2022-11-09T07:38:04;6.30;;;2.28;;
29730;SDS011;16639;51.488;0.152;2022-11-09T07:40:32;12.43;;;2.40;;
29730;SDS011;16639;51.488;0.152;2022-11-09T07:43:00;7.38;;;1.85;;
29730;SDS011;16639;51.488;0.152;2022-11-09T07:45:29;7.80;;;1.88;;
29730;SDS011;16639;51.488;0.152;2022-11-09T07:48:01;8.15;;;3.03;;
29730;SDS011;16639;51.488;0.152;2022-11-09T07:50:33;9.60;;;2.00;;
29730;SDS011;16639;51.488;0.152;2022-11-09T07:53:01;8.40;;;2.53;;
29730;SDS011;16639;51.488;0.152;2022-11-09T07:55:29;9.63;;;3.10;;
29730;SDS011;16639;51.488;0.152;2022-11-09T07:57:57;4.82;;;2.28;;
29730;SDS011;16639;51.488;0.152;2022-11-09T08:00:27;6.43;;;1.95;;
29730;SDS011;16639;51.488;0.152;2022-11-09T08:02:56;5.72;;;1.92;;
29730;SDS011;16639;51.488;0.152;2022-11-09T08:05:23;6.47;;;2.13;;
29730;SDS011;16639;51.488;0.152;2022-11-09T08:07:54;10.32;;;2.22;;
29730;SDS011;16639;51.488;0.152;2022-11-09T08:10:23;10.13;;;1.88;;
29730;SDS011;16639;51.488;0.152;2022-11-09T08:12:52;9.38;;;2.13;;
29730;SDS011;16639;51.488;0.152;2022-11-09T08:15:24;8.20;;;1.60;;
29730;SDS011;16639;51.488;0.152;2022-11-09T08:17:51;4.60;;;2.13;;
29730;SDS011;16639;51.488;0.152;2022-11-09T08:20:19;10.35;;;2.88;;
29730;SDS011;16639;51.488;0.152;2022-11-09T08:22:47;10.13;;;1.80;;
29730;SDS011;16639;51.488;0.152;2022-11-09T08:25:15;6.60;;;1.63;;
29730;SDS011;16639;51.488;0.152;2022-11-09T08:27:42;7.70;;;1.88;;
29730;SDS011;16639;51.488;0.152;2022-11-09T08:30:14;6.28;;;1.80;;
29730;SDS011;16639;51.488;0.152;2022-11-09T08:32:43;10.95;;;1.48;;
29730;SDS011;16639;51.488;0.152;2022-11-09T08:35:11;4.47;;;1.73;;
29730;SDS011;16639;51.488;0.152;2022-11-09T08:37:43;10.48;;;2.00;;
29730;SDS011;16639;51.488;0.152;2022-11-09T08:40:13;6.20;;;1.88;;
29730;SDS011;16639;51.488;0.152;2022-11-09T08:42:42;8.23;;;1.60;;
29730;SDS011;16639;51.488;0.152;2022-11-09T08:45:10;11.35;;;2.17;;
29730;SDS011;16639;51.488;0.152;2022-11-09T08:47:38;8.52;;;1.63;;
29730;SDS011;16639;51.488;0.152;2022-11-09T08:50:06;6.40;;;1.65;;
29730;SDS011;16639;51.488;0.152;2022-11-09T08:52:35;9.32;;;1.83;;
29730;SDS011;16639;51.488;0.152;2022-11-09T08:55:04;9.95;;;1.70;;
29730;SDS011;16639;51.488;0.152;2022-11-09T08:57:31;12.60;;;1.55;;
29730;SDS011;16639;51.488;0.152;2022-11-09T08:59:59;7.18;;;2.20;;
29730;SDS011;16639;51.488;0.152;2022-11-09T09:02:26;5.97;;;1.70;;
29730;SDS011;16639;51.488;0.152;2022-11-09T09:04:53;6.63;;;1.70;;
29730;SDS011;16639;51.488;0.152;2022-11-09T09:07:21;4.30;;;1.60;;
29730;SDS011;16639;51.488;0.152;2022-11-09T09:09:48;10.35;;;1.95;;
29730;SDS011;16639;51.488;0.152;2022-11-09T09:12:16;8.85;;;1.88;;
29730;SDS011;16639;51.488;0.152;2022-11-09T09:14:43;6.15;;;1.40;;
29730;SDS011;16639;51.488;0.152;2022-11-09T09:17:11;5.75;;;1.38;;
29730;SDS011;16639;51.488;0.152;2022-11-09T09:19:38;5.72;;;1.58;;
29730;SDS011;16639;51.488;0.152;2022-11-09T09:22:06;8.57;;;1.48;;
29730;SDS011;16639;51.488;0.152;2022-11-09T09:24:33;6.63;;;1.65;;
29730;SDS011;16639;51.488;0.152;2022-11-09T09:27:01;10.35;;;2.80;;
29730;SDS011;16639;51.488;0.152;2022-11-09T09:29:28;4.85;;;1.42;;
29730;SDS011;16639;51.488;0.152;2022-11-09T09:31:57;4.82;;;1.55;;
29730;SDS011;16639;51.488;0.152;2022-11-09T09:34:24;2.75;;;1.23;;
29730;SDS011;16639;51.488;0.152;2022-11-09T09:36:52;11.48;;;1.40;;
29730;SDS011;16639;51.488;0.152;2022-11-09T09:39:19;2.78;;;1.50;;
29730;SDS011;16639;51.488;0.152;2022-11-09T09:41:51;6.40;;;1.27;;
29730;SDS011;16639;51.488;0.152;2022-11-09T09:44:38;4.13;;;1.48;;
29730;SDS011;16639;51.488;0.152;2022-11-09T09:47:23;10.25;;;2.53;;
29730;SDS011;16639;51.488;0.152;2022-11-09T09:50:19;8.02;;;1.63;;
29730;SDS011;16639;51.488;0.152;2022-11-09T09:55:46;5.95;;;1.55;;
29730;SDS011;16639;51.488;0.152;2022-11-09T09:58:23;13.25;;;2.15;;
29730;SDS011;16639;51.488;0.152;2022-11-09T10:00:57;8.10;;;1.52;;
29730;SDS011;16639;51.488;0.152;2022-11-09T10:03:37;11.00;;;1.73;;
29730;SDS011;16639;51.488;0.152;2022-11-09T10:12:00;3.78;;;1.20;;
29730;SDS011;16639;51.488;0.152;2022-11-09T10:14:49;6.43;;;1.60;;
29730;SDS011;16639;51.488;0.152;2022-11-09T10:20:38;4.57;;;1.23;;
29730;SDS011;16639;51.488;0.152;2022-11-09T10:26:38;9.82;;;1.40;;
29730;SDS011;16639;51.488;0.152;2022-11-09T10:31:46;5.22;;;1.27;;
29730;SDS011;16639;51.488;0.152;2022-11-09T10:34:16;8.50;;;1.70;;
29730;SDS011;16639;51.488;0.152;2022-11-09T10:37:00;10.77;;;2.30;;
29730;SDS011;16639;51.488;0.152;2022-11-09T10:39:41;6.53;;;1.77;;
29730;SDS011;16639;51.488;0.152;2022-11-09T10:42:15;10.38;;;1.67;;
29730;SDS011;16639;51.488;0.152;2022-11-09T10:44:42;5.88;;;1.55;;
29730;SDS011;16639;51.488;0.152;2022-11-09T10:47:11;7.13;;;1.75;;
29730;SDS011;16639;51.488;0.152;2022-11-09T10:49:39;7.00;;;1.55;;
29730;SDS011;16639;51.488;0.152;2022-11-09T10:55:14;7.63;;;1.77;;
29730;SDS011;16639;51.488;0.152;2022-11-09T11:00:27;9.93;;;2.08;;
29730;SDS011;16639;51.488;0.152;2022-11-09T11:02:54;7.82;;;2.03;;
29730;SDS011;16639;51.488;0.152;2022-11-09T11:05:23;13.00;;;2.33;;
29730;SDS011;16639;51.488;0.152;2022-11-09T11:07:52;8.05;;;2.15;;
29730;SDS011;16639;51.488;0.152;2022-11-09T11:10:20;10.30;;;2.22;;
29730;SDS011;16639;51.488;0.152;2022-11-09T11:15:38;8.57;;;1.95;;
29730;SDS011;16639;51.488;0.152;2022-11-09T11:18:14;3.97;;;1.30;;
29730;SDS011;16639;51.488;0.152;2022-11-09T11:20:48;9.65;;;2.05;;
29730;SDS011;16639;51.488;0.152;2022-11-09T11:23:32;6.57;;;2.00;;
29730;SDS011;16639;51.488;0.152;2022-11-09T11:26:11;1.98;;;1.35;;
29730;SDS011;16639;51.488;0.152;2022-11-09T11:28:46;8.50;;;1.83;;
29730;SDS011;16639;51.488;0.152;2022-11-09T11:31:21;4.95;;;1.52;;
29730;SDS011;16639;51.488;0.152;2022-11-09T11:33:49;7.75;;;1.58;;
29730;SDS011;16639;51.488;0.152;2022-11-09T11:39:14;9.52;;;2.08;;
29730;SDS011;16639;51.488;0.152;2022-11-09T11:50:32;5.25;;;3.00;;
29730;SDS011;16639;51.488;0.152;2022-11-09T11:53:26;9.23;;;1.40;;
29730;SDS011;16639;51.488;0.152;2022-11-09T11:56:06;4.55;;;1.35;;
29730;SDS011;16639;51.488;0.152;2022-11-09T12:09:56;6.38;;;1.55;;
29730;SDS011;16639;51.488;0.152;2022-11-09T12:12:48;4.30;;;1.50;;
29730;SDS011;16639;51.488;0.152;2022-11-09T12:18:24;12.77;;;1.77;;
29730;SDS011;16639;51.488;0.152;2022-11-09T12:21:14;7.13;;;1.92;;
29730;SDS011;16639;51.488;0.152;2022-11-09T12:23:59;12.30;;;1.95;;
29730;SDS011;16639;51.488;0.152;2022-11-09T12:29:54;11.50;;;1.60;;
29730;SDS011;16639;51.488;0.152;2022-11-09T12:39:18;6.05;;;2.13;;
29730;SDS011;16639;51.488;0.152;2022-11-09T12:41:20;11.10;;;2.05;;
29730;SDS011;16639;51.488;0.152;2022-11-09T12:46:45;10.98;;;1.58;;
29730;SDS011;16639;51.488;0.152;2022-11-09T12:49:29;15.52;;;2.70;;
29730;SDS011;16639;51.488;0.152;2022-11-09T12:51:57;5.15;;;2.15;;
29730;SDS011;16639;51.488;0.152;2022-11-09T12:54:25;8.52;;;2.03;;
29730;SDS011;16639;51.488;0.152;2022-11-09T12:56:58;8.85;;;2.20;;
29730;SDS011;16639;51.488;0.152;2022-11-09T12:59:34;10.32;;;2.53;;
29730;SDS011;16639;51.488;0.152;2022-11-09T13:02:03;6.65;;;1.63;;
29730;SDS011;16639;51.488;0.152;2022-11-09T13:04:31;8.20;;;1.88;;
29730;SDS011;16639;51.488;0.152;2022-11-09T13:09:32;7.10;;;1.95;;
29730;SDS011;16639;51.488;0.152;2022-11-09T13:12:17;4.10;;;1.48;;
29730;SDS011;16639;51.488;0.152;2022-11-09T13:15:11;9.23;;;1.48;;
29730;SDS011;16639;51.488;0.152;2022-11-09T13:18:00;3.42;;;1.40;;
29730;SDS011;16639;51.488;0.152;2022-11-09T13:26:22;7.85;;;2.00;;
29730;SDS011;16639;51.488;0.152;2022-11-09T13:34:38;12.50;;;1.83;;
29730;SDS011;16639;51.488;0.152;2022-11-09T13:45:42;9.80;;;1.75;;
29730;SDS011;16639;51.488;0.152;2022-11-09T13:48:29;10.32;;;2.10;;
29730;SDS011;16639;51.488;0.152;2022-11-09T13:59:20;3.95;;;1.52;;
29730;SDS011;16639;51.488;0.152;2022-11-09T14:01:53;11.60;;;2.42;;
29730;SDS011;16639;51.488;0.152;2022-11-09T14:04:35;25.65;;;2.80;;
29730;SDS011;16639;51.488;0.152;2022-11-09T14:17:40;18.80;;;2.15;;
29730;SDS011;16639;51.488;0.152;2022-11-09T14:23:13;9.20;;;1.85;;
29730;SDS011;16639;51.488;0.152;2022-11-09T14:25:42;16.30;;;2.92;;
29730;SDS011;16639;51.488;0.152;2022-11-09T14:28:32;5.82;;;2.00;;
29730;SDS011;16639;51.488;0.152;2022-11-09T14:31:00;8.23;;;1.50;;
29730;SDS011;16639;51.488;0.152;2022-11-09T14:33:29;10.48;;;2.22;;
29730;SDS011;16639;51.488;0.152;2022-11-09T14:36:01;8.07;;;1.55;;
29730;SDS011;16639;51.488;0.152;2022-11-09T14:38:30;7.75;;;1.73;;
29730;SDS011;16639;51.488;0.152;2022-11-09T14:41:22;9.70;;;2.35;;
29730;SDS011;16639;51.488;0.152;2022-11-09T14:43:52;10.15;;;1.95;;
29730;SDS011;16639;51.488;0.152;2022-11-09T14:46:22;8.80;;;2.25;;
29730;SDS011;16639;51.488;0.152;2022-11-09T14:48:57;6.75;;;2.10;;
29730;SDS011;16639;51.488;0.152;2022-11-09T14:51:34;13.63;;;2.10;;
29730;SDS011;16639;51.488;0.152;2022-11-09T14:54:08;9.85;;;2.42;;
29730;SDS011;16639;51.488;0.152;2022-11-09T14:56:39;10.80;;;2.63;;
29730;SDS011;16639;51.488;0.152;2022-11-09T14:59:11;13.32;;;2.80;;
29730;SDS011;16639;51.488;0.152;2022-11-09T15:01:59;10.70;;;2.03;;
29730;SDS011;16639;51.488;0.152;2022-11-09T15:05:00;10.93;;;2.20;;
29730;SDS011;16639;51.488;0.152;2022-11-09T15:07:30;7.00;;;2.03;;
29730;SDS011;16639;51.488;0.152;2022-11-09T15:10:00;8.23;;;1.90;;
29730;SDS011;16639;51.488;0.152;2022-11-09T15:12:32;12.32;;;2.08;;
29730;SDS011;16639;51.488;0.152;2022-11-09T15:15:03;12.90;;;2.33;;
29730;SDS011;16639;51.488;0.152;2022-11-09T15:17:34;6.28;;;1.65;;
29730;SDS011;16639;51.488;0.152;2022-11-09T15:20:21;8.73;;;1.85;;
29730;SDS011;16639;51.488;0.152;2022-11-09T15:22:56;7.18;;;1.80;;
29730;SDS011;16639;51.488;0.152;2022-11-09T15:30:36;7.13;;;2.85;;
29730;SDS011;16639;51.488;0.152;2022-11-09T15:35:57;10.70;;;2.17;;
29730;SDS011;16639;51.488;0.152;2022-11-09T15:38:34;6.35;;;1.83;;
29730;SDS011;16639;51.488;0.152;2022-11-09T15:41:10;6.47;;;2.88;;
29730;SDS011;16639;51.488;0.152;2022-11-09T15:43:39;8.27;;;2.88;;
29730;SDS011;16639;51.488;0.152;2022-11-09T15:46:09;11.88;;;2.85;;
29730;SDS011;16639;51.488;0.152;2022-11-09T15:48:41;7.20;;;2.05;;
29730;SDS011;16639;51.488;0.152;2022-11-09T15:51:12;10.77;;;2.33;;
29730;SDS011;16639;51.488;0.152;2022-11-09T15:53:41;10.63;;;3.38;;
29730;SDS011;16639;51.488;0.152;2022-11-09T15:56:16;7.70;;;2.05;;
29730;SDS011;16639;51.488;0.152;2022-11-09T15:58:46;7.25;;;2.78;;
29730;SDS011;16639;51.488;0.152;2022-11-09T16:01:14;8.27;;;2.00;;
29730;SDS011;16639;51.488;0.152;2022-11-09T16:03:42;8.50;;;2.15;;
29730;SDS011;16639;51.488;0.152;2022-11-09T16:06:10;7.47;;;2.00;;
29730;SDS011;16639;51.488;0.152;2022-11-09T16:08:48;7.50;;;2.35;;
29730;SDS011;16639;51.488;0.152;2022-11-09T16:11:16;7.63;;;3.00;;
29730;SDS011;16639;51.488;0.152;2022-11-09T16:13:44;9.88;;;2.53;;
29730;SDS011;16639;51.488;0.152;2022-11-09T16:16:12;7.70;;;2.13;;
29730;SDS011;16639;51.488;0.152;2022-11-09T16:18:41;8.13;;;1.70;;
29730;SDS011;16639;51.488;0.152;2022-11-09T16:21:10;6.72;;;2.05;;
29730;SDS011;16639;51.488;0.152;2022-11-09T16:23:39;6.25;;;2.25;;
29730;SDS011;16639;51.488;0.152;2022-11-09T16:26:07;10.40;;;1.92;;
29730;SDS011;16639;51.488;0.152;2022-11-09T16:28:53;8.55;;;2.25;;
29730;SDS011;16639;51.488;0.152;2022-11-09T16:31:20;9.60;;;2.78;;
29730;SDS011;16639;51.488;0.152;2022-11-09T16:34:08;9.80;;;4.15;;
29730;SDS011;16639;51.488;0.152;2022-11-09T16:36:35;11.15;;;3.53;;
29730;SDS011;16639;51.488;0.152;2022-11-09T16:39:07;10.57;;;4.47;;
29730;SDS011;16639;51.488;0.152;2022-11-09T16:41:39;14.57;;;4.10;;
29730;SDS011;16639;51.488;0.152;2022-11-09T16:44:07;13.90;;;4.25;;
29730;SDS011;16639;51.488;0.152;2022-11-09T16:46:36;18.00;;;3.80;;
29730;SDS011;16639;51.488;0.152;2022-11-09T16:49:03;12.13;;;3.35;;
29730;SDS011;16639;51.488;0.152;2022-11-09T16:51:31;8.18;;;3.22;;
29730;SDS011;16639;51.488;0.152;2022-11-09T16:53:58;9.15;;;3.95;;
29730;SDS011;16639;51.488;0.152;2022-11-09T16:56:25;6.90;;;2.50;;
29730;SDS011;16639;51.488;0.152;2022-11-09T16:58:53;8.25;;;2.88;;
29730;SDS011;16639;51.488;0.152;2022-11-09T17:01:20;8.07;;;2.45;;
29730;SDS011;16639;51.488;0.152;2022-11-09T17:03:49;10.15;;;2.60;;
29730;SDS011;16639;51.488;0.152;2022-11-09T17:06:17;10.15;;;2.67;;